createdAt,value
2019-02-12T00:03:25.383Z,5.83
2019-02-12T00:08:31.503Z,5.80
2019-02-12T00:13:44.109Z,6.50
2019-02-12T00:18:55.185Z,4.90
2019-02-12T00:24:00.528Z,6.57
2019-02-12T00:29:09.395Z,7.53
2019-02-12T00:34:16.730Z,5.43
2019-02-12T00:39:24.772Z,5.70
2019-02-12T00:44:38.053Z,6.37
2019-02-12T00:49:44.041Z,5.80
2019-02-12T00:54:50.687Z,5.60
2019-02-12T00:59:58.265Z,5.40
2019-02-12T01:05:04.495Z,4.80
2019-02-12T01:10:11.208Z,5.53
2019-02-12T01:15:21.760Z,6.47
2019-02-12T01:20:29.921Z,5.20
2019-02-12T01:25:35.978Z,6.97
2019-02-12T01:30:44.781Z,7.03
2019-02-12T01:35:50.739Z,6.67
2019-02-12T01:40:59.466Z,7.40
2019-02-12T01:46:08.398Z,8.13
2019-02-12T01:51:18.311Z,7.30
2019-02-12T01:56:30.595Z,7.90
2019-02-12T02:01:38.945Z,7.60
2019-02-12T02:06:46.957Z,7.67
2019-02-12T02:11:55.768Z,7.83
2019-02-12T02:17:01.681Z,7.73
2019-02-12T02:22:08.029Z,7.60
2019-02-12T02:27:20.641Z,7.83
2019-02-12T02:32:29.774Z,8.10
2019-02-12T02:37:38.985Z,8.83
2019-02-12T02:42:48.883Z,7.60
2019-02-12T02:47:55.105Z,7.40
2019-02-12T02:53:05.129Z,7.90
2019-02-12T02:58:16.546Z,8.07
2019-02-12T03:03:24.801Z,8.50
2019-02-12T03:08:34.403Z,7.70
2019-02-12T03:13:43.244Z,6.30
2019-02-12T03:18:49.762Z,8.17
2019-02-12T03:23:58.146Z,6.63
2019-02-12T03:29:07.311Z,6.97
2019-02-12T03:34:15.749Z,6.40
2019-02-12T03:39:23.116Z,6.73
2019-02-12T03:44:37.357Z,6.53
2019-02-12T03:49:46.945Z,5.43
2019-02-12T03:54:55.770Z,7.50
2019-02-12T04:00:05.316Z,7.60
2019-02-12T04:05:11.519Z,7.13
2019-02-12T04:10:18.246Z,7.40
2019-02-12T04:15:28.845Z,7.30
2019-02-12T04:20:36.979Z,7.23
2019-02-12T04:25:45.677Z,6.67
2019-02-12T04:30:52.181Z,6.47
2019-02-12T04:36:00.042Z,5.87
2019-02-12T04:41:07.165Z,5.90
2019-02-12T04:46:16.416Z,5.60
2019-02-12T04:51:24.802Z,6.40
2019-02-12T04:56:33.135Z,5.53
2019-02-12T05:01:41.094Z,4.77
2019-02-12T05:06:50.637Z,5.30
2019-02-12T05:12:08.234Z,4.93
2019-02-12T05:17:15.364Z,6.20
2019-02-12T05:22:22.634Z,6.53
2019-02-12T05:27:29.575Z,4.93
2019-02-12T05:32:37.821Z,4.10
2019-02-12T05:37:46.681Z,4.00
2019-02-12T05:42:55.030Z,5.17
2019-02-12T05:48:04.820Z,4.53
2019-02-12T05:53:11.223Z,5.50
2019-02-12T05:58:20.110Z,5.10
2019-02-12T06:03:26.757Z,5.13
2019-02-12T06:08:33.996Z,5.03
2019-02-12T06:13:43.679Z,6.20
2019-02-12T06:18:50.890Z,4.40
2019-02-12T06:23:58.981Z,5.30
2019-02-12T06:29:08.321Z,4.80
2019-02-12T06:34:16.100Z,4.70
2019-02-12T06:39:25.820Z,4.70
2019-02-12T06:44:32.760Z,4.23
2019-02-12T06:49:39.937Z,4.50
2019-02-12T06:54:48.060Z,4.53
2019-02-12T06:59:55.187Z,4.63
2019-02-12T07:05:03.420Z,5.63
2019-02-12T07:10:19.090Z,5.67
2019-02-12T07:15:45.358Z,5.37
2019-02-12T07:21:32.041Z,5.47
2019-02-12T07:27:16.512Z,5.50
2019-02-12T07:32:50.921Z,5.33
2019-02-12T07:38:22.075Z,6.05
2019-02-12T07:44:01.931Z,5.63
2019-02-12T07:49:35.604Z,5.50
2019-02-12T07:55:11.594Z,5.80
2019-02-12T08:00:53.999Z,6.97
2019-02-12T08:06:22.399Z,5.97
2019-02-12T08:12:07.995Z,6.13
2019-02-12T08:17:53.980Z,6.27
2019-02-12T08:23:43.653Z,5.60
2019-02-12T08:29:32.942Z,6.23
2019-02-12T08:35:14.629Z,6.93
2019-02-12T08:40:55.942Z,6.17
2019-02-12T08:46:28.809Z,5.67
2019-02-12T08:52:16.033Z,6.57
2019-02-12T08:57:54.233Z,6.33
2019-02-12T09:03:36.584Z,6.93
2019-02-12T09:09:20.295Z,6.10
2019-02-12T09:14:44.480Z,5.47
2019-02-12T09:20:22.911Z,5.30
2019-02-12T09:25:47.647Z,5.40
2019-02-12T09:31:34.842Z,4.57
2019-02-12T09:37:34.043Z,5.33
2019-02-12T09:43:09.191Z,4.90
2019-02-12T09:48:37.283Z,6.20
2019-02-12T09:54:29.570Z,5.90
2019-02-12T10:00:01.673Z,5.60
2019-02-12T10:05:33.411Z,5.00
2019-02-12T10:11:12.133Z,5.73
2019-02-12T10:17:01.798Z,5.70
2019-02-12T10:22:54.542Z,6.47
2019-02-12T10:28:48.891Z,7.03
2019-02-12T10:33:51.044Z,6.27
2019-02-12T10:39:04.525Z,6.70
2019-02-12T10:44:15.276Z,6.40
2019-02-12T10:49:29.764Z,7.07
2019-02-12T10:54:40.559Z,6.67
2019-02-12T10:59:54.053Z,6.93
2019-02-12T11:05:26.390Z,7.40
2019-02-12T11:10:38.184Z,6.87
2019-02-12T11:15:50.857Z,8.90
2019-02-12T11:21:02.470Z,8.73
2019-02-12T11:26:13.148Z,8.73
2019-02-12T11:31:24.276Z,8.07
2019-02-12T11:36:34.200Z,8.17
2019-02-12T11:41:45.278Z,7.77
2019-02-12T11:46:58.102Z,8.37
2019-02-12T11:52:13.058Z,9.33
2019-02-12T11:57:24.694Z,7.97
2019-02-12T12:02:41.808Z,7.10
2019-02-12T12:07:47.790Z,7.10
2019-02-12T12:12:57.604Z,7.70
2019-02-12T12:18:11.202Z,6.93
2019-02-12T12:23:20.191Z,6.93
2019-02-12T12:28:32.486Z,7.23
2019-02-12T12:33:46.054Z,7.00
2019-02-12T12:38:57.834Z,7.17
2019-02-12T12:44:05.831Z,7.73
2019-02-12T12:49:19.237Z,6.80
2019-02-12T12:54:31.408Z,7.40
2019-02-12T12:59:41.412Z,8.33
2019-02-12T13:04:49.132Z,7.90
2019-02-12T13:10:15.271Z,7.07
2019-02-12T13:15:26.218Z,8.00
2019-02-12T13:20:37.147Z,8.90
2019-02-12T13:25:45.220Z,7.87
2019-02-12T13:30:54.947Z,8.00
2019-02-12T13:36:07.574Z,8.68
2019-02-12T13:41:15.660Z,8.38
2019-02-12T13:46:28.771Z,8.40
2019-02-12T13:51:37.823Z,9.50
2019-02-12T13:56:52.071Z,9.27
2019-02-12T14:01:58.920Z,9.37
2019-02-12T14:07:08.863Z,9.73
2019-02-12T14:12:18.721Z,10.57
2019-02-12T14:17:26.829Z,10.60
2019-02-12T14:22:36.776Z,9.80
2019-02-12T14:27:47.410Z,11.10
2019-02-12T14:32:58.772Z,10.87
2019-02-12T14:38:09.961Z,10.50
2019-02-12T14:43:19.820Z,10.70
2019-02-12T14:48:31.622Z,11.63
2019-02-12T14:53:40.625Z,10.80
2019-02-12T14:58:52.198Z,10.93
2019-02-12T15:04:03.111Z,8.60
2019-02-12T15:09:13.283Z,8.07
2019-02-12T15:14:24.260Z,8.20
2019-02-12T15:19:38.953Z,8.40
2019-02-12T15:24:47.435Z,7.97
2019-02-12T15:29:56.043Z,8.53
2019-02-12T15:35:06.920Z,8.70
2019-02-12T15:40:17.567Z,8.38
2019-02-12T15:45:30.256Z,8.73
2019-02-12T15:50:43.779Z,8.23
2019-02-12T15:55:53.673Z,7.30
2019-02-12T16:01:06.062Z,7.90
2019-02-12T16:06:17.176Z,7.57
2019-02-12T16:11:23.501Z,7.17
2019-02-12T16:16:33.833Z,7.58
2019-02-12T16:21:43.677Z,7.85
2019-02-12T16:26:57.072Z,7.47
2019-02-12T16:32:26.538Z,7.10
2019-02-12T16:37:35.491Z,8.80
2019-02-12T16:42:45.023Z,8.87
2019-02-12T16:47:52.931Z,9.97
2019-02-12T16:53:08.105Z,10.67
2019-02-12T16:58:16.044Z,10.53
2019-02-12T17:03:28.825Z,10.20
2019-02-12T17:08:41.420Z,11.07
2019-02-12T17:13:54.059Z,10.17
2019-02-12T17:19:05.734Z,10.50
2019-02-12T17:24:14.772Z,10.23
2019-02-12T17:29:26.663Z,10.87
2019-02-12T17:34:36.654Z,10.90
2019-02-12T17:39:53.100Z,10.90
2019-02-12T17:45:05.861Z,11.83
2019-02-12T17:50:18.860Z,11.68
2019-02-12T17:55:30.729Z,11.17
2019-02-12T18:00:49.681Z,11.63
2019-02-12T18:05:57.910Z,11.07
2019-02-12T18:11:11.509Z,11.13
2019-02-12T18:16:26.852Z,11.17
2019-02-12T18:21:33.824Z,11.23
2019-02-12T18:26:42.092Z,10.87
2019-02-12T18:31:54.919Z,11.80
2019-02-12T18:37:08.454Z,12.67
2019-02-12T18:42:20.420Z,13.40
2019-02-12T18:47:37.455Z,14.70
2019-02-12T18:52:49.056Z,14.50
2019-02-12T18:57:59.124Z,15.90
2019-02-12T19:03:07.078Z,17.87
2019-02-12T19:08:21.705Z,17.42
2019-02-12T19:13:37.327Z,17.67
2019-02-12T19:18:47.185Z,18.80
2019-02-12T19:24:03.943Z,16.83
2019-02-12T19:29:18.443Z,16.87
2019-02-12T19:34:25.872Z,16.23
2019-02-12T19:39:35.782Z,17.30
2019-02-12T19:44:50.278Z,17.23
2019-02-12T19:49:59.341Z,17.37
2019-02-12T19:55:07.469Z,17.27
2019-02-12T20:00:21.767Z,18.47
2019-02-12T20:05:29.345Z,18.17
2019-02-12T20:10:36.959Z,18.53
2019-02-12T20:15:47.824Z,20.00
2019-02-12T20:21:57.527Z,19.12
2019-02-12T20:27:06.683Z,19.50
2019-02-12T20:32:16.242Z,20.27
2019-02-12T20:37:26.633Z,19.45
2019-02-12T20:42:40.236Z,19.00
2019-02-12T20:47:52.933Z,20.30
2019-02-12T20:53:01.315Z,20.67
2019-02-12T20:58:13.024Z,20.00
2019-02-12T21:03:25.541Z,20.73
2019-02-12T21:08:38.501Z,20.23
2019-02-12T21:13:46.331Z,21.37
2019-02-12T21:18:55.259Z,21.77
2019-02-12T21:24:10.632Z,21.20
2019-02-12T21:29:20.613Z,20.72
2019-02-12T21:34:29.673Z,21.43
2019-02-12T21:39:40.954Z,21.10
2019-02-12T21:44:49.463Z,20.57
2019-02-12T21:50:04.844Z,22.67
2019-02-12T21:55:17.845Z,21.80
2019-02-12T22:00:30.409Z,21.27
2019-02-12T22:05:39.543Z,22.63
2019-02-12T22:10:50.494Z,21.90
2019-02-12T22:15:58.227Z,24.13
2019-02-12T22:21:10.735Z,24.63
2019-02-12T22:26:20.809Z,23.98
2019-02-12T22:31:29.859Z,22.80
2019-02-12T22:36:37.891Z,23.33
2019-02-12T22:41:50.546Z,23.40
2019-02-12T22:47:01.363Z,22.73
2019-02-12T22:52:22.184Z,25.30
2019-02-12T22:57:33.720Z,22.17
2019-02-12T23:02:45.440Z,23.30
2019-02-12T23:07:55.655Z,23.57
2019-02-12T23:13:09.966Z,23.63
2019-02-12T23:18:20.837Z,23.62
2019-02-12T23:23:37.994Z,23.87
2019-02-12T23:28:51.111Z,24.53
2019-02-12T23:34:01.880Z,23.03
2019-02-12T23:39:11.562Z,23.00
2019-02-12T23:44:23.398Z,24.35
2019-02-12T23:49:37.364Z,25.10
2019-02-12T23:54:50.886Z,24.93
